Amalia, NM

7:12 AM MDT on April 18, 2015 (GMT -0600)
RAWS | | Change Station
CLOSE
Current Station
Personal Weather Station
Location: Questa, NM
Elevation: 7529 ft
Nearby Weather Stations

Elev 7529 ft 36.69 °N, 105.67 °W | Updated 23 minutes ago

Partly Cloudy
Partly Cloudy
19 °F
Feels Like 19 °F
N
1
Wind Variable Wind from SW
Gusts 4.0 mph

Today
High -- | Low -- °F
--% Chance of Precip.
Yesterday
High -- | Low -- °F
Precip. -- in
6:24 AM 7:39 PM
Waning Crescent, 0% visible
Pressure 29.98 in
Visibility 10.0 miles
Clouds Scattered Clouds 3000 ft
Scattered Clouds 3400 ft
Overcast 11000 ft
Windchill 19 °F
Dew Point 8 °F
Humidity 62%
Rainfall in
Snow Depth Not available.
UV 0 out of 12
Pollen 10.20 out of 12
Air Quality Not available.
Flu Activity Local Activity
METAR KAXX 181255Z AUTO 30004KT 10SM SCT030 SCT034 OVC110 M04/M07 A2998 RMK AO2 T10401068

More Conditions Fewer Conditions

Pressure 29.98 in
Visibility 10.0 miles
Clouds Scattered Clouds 3000 ft
Scattered Clouds 3400 ft
Overcast 11000 ft
Windchill 19 °F
Dew Point 8 °F
Humidity 62%
Rainfall in
Snow Depth Not available.
UV 0 out of 12
Pollen 10.20 out of 12
Air Quality Not available.
Flu Activity Local Activity
METAR KAXX 181255Z AUTO 30004KT 10SM SCT030 SCT034 OVC110 M04/M07 A2998 RMK AO2 T10401068

More Conditions Fewer Conditions

Nowcast | as of 5:13 am MDT on April 18, 2015

Through 8 am...light snow and areas of fog will continue impacting the Sangre de Cristo Mountains and nearby Rio Grande Valley. Favored locations for accumulating snowfall will be along west facing slopes from Truchas south to the Santa Fe ski basin and Pecos. 1 to 2 inches of snowfall is possible...with locally slick travel in the higher terrain.

×

10-Day Weather Forecast

Almanac

Astronomy

Apr. 18, 2015 Rise Set
Actual Time
Civil Twilight
Nautical Twilight
Astronomical Twilight
Moon
Length of Visible Light
Length of Day
Tomorrow will be .
, % of the Moon is Illuminated

Today's Extremes

State Highs State Lows

Community

WunderPhotos

Upload Photos

1,814,383 photos uploaded!

WunderBlogs® & News

Nearby

Air Quality

  Air Quality AQ Index Pollutant
Not available.

Snow Depth

Station Depth Elevation

Earthquake Activity

City Distance Mag. Time & Date
Minimum magnitude displayed is 2.5.

Coastal Water Temperatures

Place Temperature

Stations

Nearby Weather Stations

Station Location Temp. Windchill Dew Point Humidity Wind Precip. Elev Updated Type